sensor_id;sensor_type;location;lat;lon;timestamp;pressure;altitude;pressure_sealevel;temperature;humidity
1776;BME280;885;42.626;23.200;2023-02-04T00:02:23;165652.28;;;1.88;89.98
1776;BME280;885;42.626;23.200;2023-02-04T00:04:50;165650.91;;;1.88;90.36
1776;BME280;885;42.626;23.200;2023-02-04T00:07:17;165678.28;;;1.98;88.59
1776;BME280;885;42.626;23.200;2023-02-04T00:09:44;165656.38;;;1.90;88.49
1776;BME280;885;42.626;23.200;2023-02-04T00:12:13;165648.13;;;1.87;88.48
1776;BME280;885;42.626;23.200;2023-02-04T00:14:40;165657.75;;;1.90;86.91
1776;BME280;885;42.626;23.200;2023-02-04T00:17:07;165631.72;;;1.81;87.60
1776;BME280;885;42.626;23.200;2023-02-04T00:19:35;165661.72;;;1.93;85.83
1776;BME280;885;42.626;23.200;2023-02-04T00:22:02;165653.53;;;1.90;86.73
1776;BME280;885;42.626;23.200;2023-02-04T00:24:29;165656.22;;;1.91;86.87
1776;BME280;885;42.626;23.200;2023-02-04T00:26:56;165626.16;;;1.80;86.42
1776;BME280;885;42.626;23.200;2023-02-04T00:29:24;165638.47;;;1.84;87.54
1776;BME280;885;42.626;23.200;2023-02-04T00:31:51;165634.34;;;1.83;87.39
1776;BME280;885;42.626;23.200;2023-02-04T00:34:17;165645.28;;;1.87;88.34
1776;BME280;885;42.626;23.200;2023-02-04T00:36:44;165586.44;;;1.65;88.99
1776;BME280;885;42.626;23.200;2023-02-04T00:39:11;165575.47;;;1.61;91.08
1776;BME280;885;42.626;23.200;2023-02-04T00:41:38;165543.97;;;1.49;91.20
1776;BME280;885;42.626;23.200;2023-02-04T00:44:05;165556.28;;;1.54;92.45
1776;BME280;885;42.626;23.200;2023-02-04T00:46:33;165541.25;;;1.48;92.73
1776;BME280;885;42.626;23.200;2023-02-04T00:49:00;165533.16;;;1.44;94.55
1776;BME280;885;42.626;23.200;2023-02-04T00:51:26;165508.50;;;1.35;94.88
1776;BME280;885;42.626;23.200;2023-02-04T00:53:53;165475.66;;;1.23;94.40
1776;BME280;885;42.626;23.200;2023-02-04T00:56:20;165490.69;;;1.29;95.25
1776;BME280;885;42.626;23.200;2023-02-04T00:58:47;165479.75;;;1.25;95.56
1776;BME280;885;42.626;23.200;2023-02-04T01:01:13;165475.66;;;1.23;96.00
1776;BME280;885;42.626;23.200;2023-02-04T01:03:42;165471.50;;;1.22;96.79
1776;BME280;885;42.626;23.200;2023-02-04T01:06:08;165500.25;;;1.32;94.92
1776;BME280;885;42.626;23.200;2023-02-04T01:08:35;165526.31;;;1.42;93.92
1776;BME280;885;42.626;23.200;2023-02-04T01:11:02;165533.16;;;1.44;92.73
1776;BME280;885;42.626;23.200;2023-02-04T01:13:29;165533.16;;;1.44;92.13
1776;BME280;885;42.626;23.200;2023-02-04T01:15:56;165566.00;;;1.56;91.76
1776;BME280;885;42.626;23.200;2023-02-04T01:18:23;165581.03;;;1.62;91.88
1776;BME280;885;42.626;23.200;2023-02-04T01:20:51;165550.91;;;1.51;91.59
1776;BME280;885;42.626;23.200;2023-02-04T01:23:18;165601.63;;;1.70;91.24
1776;BME280;885;42.626;23.200;2023-02-04T01:25:44;165574.09;;;1.60;90.98
1776;BME280;885;42.626;23.200;2023-02-04T01:28:11;165600.09;;;1.70;90.48
1776;BME280;885;42.626;23.200;2023-02-04T01:30:38;165587.75;;;1.66;90.74
1776;BME280;885;42.626;23.200;2023-02-04T01:33:05;165578.19;;;1.62;91.01
1776;BME280;885;42.626;23.200;2023-02-04T01:35:32;165587.75;;;1.66;90.50
1776;BME280;885;42.626;23.200;2023-02-04T01:38:00;165623.38;;;1.79;89.68
1776;BME280;885;42.626;23.200;2023-02-04T01:40:26;165619.28;;;1.77;90.48
1776;BME280;885;42.626;23.200;2023-02-04T01:42:53;165631.63;;;1.82;89.94
1776;BME280;885;42.626;23.200;2023-02-04T01:45:20;165608.34;;;1.73;90.39
1776;BME280;885;42.626;23.200;2023-02-04T01:47:58;165619.28;;;1.77;90.56
1776;BME280;885;42.626;23.200;2023-02-04T01:50:25;165620.66;;;1.78;90.56
1776;BME280;885;42.626;23.200;2023-02-04T01:52:52;165609.72;;;1.74;90.62
1776;BME280;885;42.626;23.200;2023-02-04T01:55:25;165596.00;;;1.69;90.67
1776;BME280;885;42.626;23.200;2023-02-04T01:57:52;165598.75;;;1.70;90.82
1776;BME280;885;42.626;23.200;2023-02-04T02:00:24;165617.91;;;1.77;91.38
1776;BME280;885;42.626;23.200;2023-02-04T02:02:52;165589.16;;;1.66;91.31
1776;BME280;885;42.626;23.200;2023-02-04T02:05:22;165593.28;;;1.68;90.94
1776;BME280;885;42.626;23.200;2023-02-04T02:07:51;165619.28;;;1.77;91.17
1776;BME280;885;42.626;23.200;2023-02-04T02:10:19;165596.00;;;1.69;91.10
1776;BME280;885;42.626;23.200;2023-02-04T02:12:48;165605.56;;;1.72;91.26
1776;BME280;885;42.626;23.200;2023-02-04T02:15:15;165601.47;;;1.71;91.38
1776;BME280;885;42.626;23.200;2023-02-04T02:17:43;165626.16;;;1.80;90.19
1776;BME280;885;42.626;23.200;2023-02-04T02:20:12;165656.22;;;1.91;90.68
1776;BME280;885;42.626;23.200;2023-02-04T02:22:46;165642.56;;;1.86;89.93
1776;BME280;885;42.626;23.200;2023-02-04T02:25:17;165659.00;;;1.92;90.60
1776;BME280;885;42.626;23.200;2023-02-04T02:27:44;165669.97;;;1.96;91.15
1776;BME280;885;42.626;23.200;2023-02-04T02:30:12;165656.22;;;1.91;91.76
1776;BME280;885;42.626;23.200;2023-02-04T02:32:42;165678.19;;;1.99;91.62
1776;BME280;885;42.626;23.200;2023-02-04T02:35:09;165680.91;;;2.00;91.80
1776;BME280;885;42.626;23.200;2023-02-04T02:37:36;165686.38;;;2.02;91.10
1776;BME280;885;42.626;23.200;2023-02-04T02:40:04;165706.97;;;2.09;90.23
1776;BME280;885;42.626;23.200;2023-02-04T02:42:33;165766.00;;;2.30;90.31
1776;BME280;885;42.626;23.200;2023-02-04T02:45:02;165768.59;;;2.32;89.43
1776;BME280;885;42.626;23.200;2023-02-04T02:47:32;165800.09;;;2.43;88.77
1776;BME280;885;42.626;23.200;2023-02-04T02:49:59;165817.91;;;2.50;87.86
1776;BME280;885;42.626;23.200;2023-02-04T02:52:26;165785.03;;;2.38;87.32
1776;BME280;885;42.626;23.200;2023-02-04T02:54:53;165828.88;;;2.54;87.45
1776;BME280;885;42.626;23.200;2023-02-04T02:57:21;165860.41;;;2.66;87.45
1776;BME280;885;42.626;23.200;2023-02-04T02:59:50;165885.06;;;2.75;87.12
1776;BME280;885;42.626;23.200;2023-02-04T03:02:19;165827.50;;;2.54;87.47
1776;BME280;885;42.626;23.200;2023-02-04T03:04:50;165815.19;;;2.49;88.13
1776;BME280;885;42.626;23.200;2023-02-04T03:07:20;165837.13;;;2.57;88.25
1776;BME280;885;42.626;23.200;2023-02-04T03:09:48;165817.91;;;2.50;88.01
1776;BME280;885;42.626;23.200;2023-02-04T03:12:16;165861.75;;;2.66;88.47
1776;BME280;885;42.626;23.200;2023-02-04T03:14:43;165827.50;;;2.54;88.47
1776;BME280;885;42.626;23.200;2023-02-04T03:17:12;165868.63;;;2.69;88.15
1776;BME280;885;42.626;23.200;2023-02-04T03:19:39;165870.00;;;2.69;88.16
1776;BME280;885;42.626;23.200;2023-02-04T03:22:06;165893.31;;;2.78;88.81
1776;BME280;885;42.626;23.200;2023-02-04T03:24:34;165874.09;;;2.71;87.49
1776;BME280;885;42.626;23.200;2023-02-04T03:27:01;165826.16;;;2.53;88.65
1776;BME280;885;42.626;23.200;2023-02-04T03:29:28;165837.13;;;2.57;87.62
1776;BME280;885;42.626;23.200;2023-02-04T03:31:55;165863.13;;;2.67;88.18
1776;BME280;885;42.626;23.200;2023-02-04T03:34:25;165857.66;;;2.65;88.13
1776;BME280;885;42.626;23.200;2023-02-04T03:36:52;165823.38;;;2.52;87.80
1776;BME280;885;42.626;23.200;2023-02-04T03:39:19;165806.94;;;2.46;88.74
1776;BME280;885;42.626;23.200;2023-02-04T03:41:46;165834.34;;;2.56;88.11
1776;BME280;885;42.626;23.200;2023-02-04T03:44:13;165886.44;;;2.75;88.17
1776;BME280;885;42.626;23.200;2023-02-04T03:46:39;165904.25;;;2.82;88.14
1776;BME280;885;42.626;23.200;2023-02-04T03:49:06;165834.34;;;2.56;88.28
1776;BME280;885;42.626;23.200;2023-02-04T03:51:34;165776.78;;;2.35;89.24
1776;BME280;885;42.626;23.200;2023-02-04T03:54:01;165723.41;;;2.15;90.11
1776;BME280;885;42.626;23.200;2023-02-04T03:56:28;165771.31;;;2.33;89.97
1776;BME280;885;42.626;23.200;2023-02-04T03:58:55;165806.94;;;2.46;90.18
1776;BME280;885;42.626;23.200;2023-02-04T04:01:22;165798.72;;;2.43;89.61
1776;BME280;885;42.626;23.200;2023-02-04T04:03:48;165808.34;;;2.47;90.08
1776;BME280;885;42.626;23.200;2023-02-04T04:06:15;165806.94;;;2.46;90.63
1776;BME280;885;42.626;23.200;2023-02-04T04:08:43;165837.13;;;2.57;91.76
1776;BME280;885;42.626;23.200;2023-02-04T04:11:10;165732.97;;;2.19;94.17
1776;BME280;885;42.626;23.200;2023-02-04T04:13:37;165818.06;;;2.49;95.62
1776;BME280;885;42.626;23.200;2023-02-04T04:16:05;165746.78;;;2.23;97.07
1776;BME280;885;42.626;23.200;2023-02-04T04:18:33;165705.66;;;2.08;98.87
1776;BME280;885;42.626;23.200;2023-02-04T04:21:00;165619.38;;;1.76;100.00
1776;BME280;885;42.626;23.200;2023-02-04T04:23:26;165720.78;;;2.13;98.72
1776;BME280;885;42.626;23.200;2023-02-04T04:25:55;165744.06;;;2.22;97.01
1776;BME280;885;42.626;23.200;2023-02-04T04:28:21;165763.22;;;2.29;96.54
1776;BME280;885;42.626;23.200;2023-02-04T04:30:48;165774.19;;;2.33;95.13
1776;BME280;885;42.626;23.200;2023-02-04T04:33:15;165753.66;;;2.25;94.72
1776;BME280;885;42.626;23.200;2023-02-04T04:35:42;165767.31;;;2.30;96.18
1776;BME280;885;42.626;23.200;2023-02-04T04:38:10;165809.81;;;2.46;95.78
1776;BME280;885;42.626;23.200;2023-02-04T04:40:36;165831.72;;;2.54;96.42
1776;BME280;885;42.626;23.200;2023-02-04T04:43:05;165839.97;;;2.57;96.88
1776;BME280;885;42.626;23.200;2023-02-04T04:45:32;165853.66;;;2.62;96.83
1776;BME280;885;42.626;23.200;2023-02-04T04:47:58;165866.00;;;2.67;97.02
1776;BME280;885;42.626;23.200;2023-02-04T04:50:25;165829.03;;;2.53;98.18
1776;BME280;885;42.626;23.200;2023-02-04T04:52:52;165708.44;;;2.09;100.00
1776;BME280;885;42.626;23.200;2023-02-04T04:55:19;165764.59;;;2.29;100.00
1776;BME280;885;42.626;23.200;2023-02-04T04:57:46;165776.94;;;2.34;100.00
1776;BME280;885;42.626;23.200;2023-02-04T05:00:17;165796.09;;;2.41;100.00
1776;BME280;885;42.626;23.200;2023-02-04T05:02:44;165757.75;;;2.27;100.00
1776;BME280;885;42.626;23.200;2023-02-04T05:05:11;165701.56;;;2.06;100.00
1776;BME280;885;42.626;23.200;2023-02-04T05:07:38;165675.56;;;1.97;100.00
1776;BME280;885;42.626;23.200;2023-02-04T05:10:05;165607.09;;;1.72;100.00
1776;BME280;885;42.626;23.200;2023-02-04T05:12:32;165590.63;;;1.66;100.00
1776;BME280;885;42.626;23.200;2023-02-04T05:14:59;165612.56;;;1.74;100.00
1776;BME280;885;42.626;23.200;2023-02-04T05:17:27;165618.03;;;1.76;100.00
1776;BME280;885;42.626;23.200;2023-02-04T05:19:54;165641.34;;;1.84;100.00
1776;BME280;885;42.626;23.200;2023-02-04T05:22:21;165571.47;;;1.58;100.00
1776;BME280;885;42.626;23.200;2023-02-04T05:24:47;165616.66;;;1.75;100.00
1776;BME280;885;42.626;23.200;2023-02-04T05:27:14;165645.44;;;1.86;100.00
1776;BME280;885;42.626;23.200;2023-02-04T05:29:41;165618.03;;;1.76;100.00
1776;BME280;885;42.626;23.200;2023-02-04T05:32:08;165560.53;;;1.54;100.00
1776;BME280;885;42.626;23.200;2023-02-04T05:38:02;165563.25;;;1.55;100.00
1776;BME280;885;42.626;23.200;2023-02-04T05:40:29;165626.22;;;1.79;100.00
1776;BME280;885;42.626;23.200;2023-02-04T05:42:56;165642.66;;;1.85;100.00
1776;BME280;885;42.626;23.200;2023-02-04T05:45:23;165664.56;;;1.93;100.00
1776;BME280;885;42.626;23.200;2023-02-04T05:47:51;165667.34;;;1.94;100.00
1776;BME280;885;42.626;23.200;2023-02-04T05:50:19;165670.09;;;1.95;100.00
1776;BME280;885;42.626;23.200;2023-02-04T05:52:45;165694.72;;;2.04;100.00
1776;BME280;885;42.626;23.200;2023-02-04T05:55:14;165696.09;;;2.04;100.00
1776;BME280;885;42.626;23.200;2023-02-04T05:57:43;165702.97;;;2.07;100.00
1776;BME280;885;42.626;23.200;2023-02-04T06:00:12;165692.00;;;2.03;100.00
1776;BME280;885;42.626;23.200;2023-02-04T06:02:39;165683.75;;;2.00;100.00
1776;BME280;885;42.626;23.200;2023-02-04T06:05:07;165672.81;;;1.96;100.00
1776;BME280;885;42.626;23.200;2023-02-04T06:07:34;165602.94;;;1.70;100.00
1776;BME280;885;42.626;23.200;2023-02-04T06:10:02;165620.75;;;1.77;100.00
1776;BME280;885;42.626;23.200;2023-02-04T06:12:32;165563.25;;;1.55;100.00
1776;BME280;885;42.626;23.200;2023-02-04T06:15:02;165501.63;;;1.33;100.00
1776;BME280;885;42.626;23.200;2023-02-04T06:17:29;165493.44;;;1.30;100.00
1776;BME280;885;42.626;23.200;2023-02-04T06:19:56;165513.97;;;1.37;100.00
1776;BME280;885;42.626;23.200;2023-02-04T06:22:23;165530.41;;;1.43;100.00
1776;BME280;885;42.626;23.200;2023-02-04T06:24:51;165520.81;;;1.40;100.00
1776;BME280;885;42.626;23.200;2023-02-04T06:27:32;165533.16;;;1.44;100.00
1776;BME280;885;42.626;23.200;2023-02-04T06:29:59;165549.59;;;1.50;100.00
1776;BME280;885;42.626;23.200;2023-02-04T06:32:26;165600.25;;;1.69;100.00
1776;BME280;885;42.626;23.200;2023-02-04T06:34:54;165598.84;;;1.69;100.00
1776;BME280;885;42.626;23.200;2023-02-04T06:37:21;165541.34;;;1.47;100.00
1776;BME280;885;42.626;23.200;2023-02-04T06:39:51;165533.16;;;1.44;100.00
1776;BME280;885;42.626;23.200;2023-02-04T06:42:19;165571.47;;;1.58;100.00
1776;BME280;885;42.626;23.200;2023-02-04T06:44:48;165626.22;;;1.79;100.00
1776;BME280;885;42.626;23.200;2023-02-04T06:47:15;165642.66;;;1.85;100.00
1776;BME280;885;42.626;23.200;2023-02-04T06:49:41;165581.03;;;1.62;100.00
1776;BME280;885;42.626;23.200;2023-02-04T06:52:08;165609.81;;;1.73;100.00
1776;BME280;885;42.626;23.200;2023-02-04T06:54:36;165571.47;;;1.58;100.00
1776;BME280;885;42.626;23.200;2023-02-04T06:57:03;165604.34;;;1.71;100.00
1776;BME280;885;42.626;23.200;2023-02-04T06:59:56;165641.34;;;1.84;98.53
1776;BME280;885;42.626;23.200;2023-02-04T07:02:25;165645.44;;;1.86;99.64
1776;BME280;885;42.626;23.200;2023-02-04T07:04:52;165615.28;;;1.75;99.73
1776;BME280;885;42.626;23.200;2023-02-04T07:07:19;165611.19;;;1.73;99.97
1776;BME280;885;42.626;23.200;2023-02-04T07:09:46;165657.75;;;1.90;98.71
1776;BME280;885;42.626;23.200;2023-02-04T07:12:13;165608.44;;;1.72;98.07
1776;BME280;885;42.626;23.200;2023-02-04T07:14:40;165593.38;;;1.67;99.07
1776;BME280;885;42.626;23.200;2023-02-04T07:17:08;165579.66;;;1.61;99.14
1776;BME280;885;42.626;23.200;2023-02-04T07:19:35;165615.28;;;1.75;98.99
1776;BME280;885;42.626;23.200;2023-02-04T07:22:01;165612.56;;;1.74;97.44
1776;BME280;885;42.626;23.200;2023-02-04T07:24:28;165626.22;;;1.79;97.46
1776;BME280;885;42.626;23.200;2023-02-04T07:26:56;165613.91;;;1.74;96.54
1776;BME280;885;42.626;23.200;2023-02-04T07:29:22;165676.91;;;1.97;95.94
1776;BME280;885;42.626;23.200;2023-02-04T07:31:50;165727.59;;;2.16;94.91
1776;BME280;885;42.626;23.200;2023-02-04T07:34:19;165722.09;;;2.14;93.66
1776;BME280;885;42.626;23.200;2023-02-04T07:36:45;165742.69;;;2.21;94.45
1776;BME280;885;42.626;23.200;2023-02-04T07:39:12;165746.78;;;2.23;92.99
1776;BME280;885;42.626;23.200;2023-02-04T07:41:39;165787.91;;;2.38;92.85
1776;BME280;885;42.626;23.200;2023-02-04T07:44:08;165790.59;;;2.39;91.46
1776;BME280;885;42.626;23.200;2023-02-04T07:46:35;165770.09;;;2.31;92.09
1776;BME280;885;42.626;23.200;2023-02-04T07:49:02;165763.22;;;2.29;91.73
1776;BME280;885;42.626;23.200;2023-02-04T07:51:30;165804.34;;;2.44;91.46
1776;BME280;885;42.626;23.200;2023-02-04T07:53:57;165752.25;;;2.25;92.21
1776;BME280;885;42.626;23.200;2023-02-04T07:56:24;165771.47;;;2.32;91.17
1776;BME280;885;42.626;23.200;2023-02-04T07:58:53;165716.63;;;2.12;93.23
1776;BME280;885;42.626;23.200;2023-02-04T08:01:20;165774.19;;;2.33;93.88
1776;BME280;885;42.626;23.200;2023-02-04T08:03:48;165713.91;;;2.11;94.78
1776;BME280;885;42.626;23.200;2023-02-04T08:06:15;165728.97;;;2.16;93.02
1776;BME280;885;42.626;23.200;2023-02-04T08:08:43;165738.59;;;2.20;92.72
1776;BME280;885;42.626;23.200;2023-02-04T08:11:10;165686.53;;;2.01;95.05
1776;BME280;885;42.626;23.200;2023-02-04T08:13:37;165709.81;;;2.09;95.65
1776;BME280;885;42.626;23.200;2023-02-04T08:16:04;165708.44;;;2.09;95.60
1776;BME280;885;42.626;23.200;2023-02-04T08:18:31;165722.09;;;2.14;96.49
1776;BME280;885;42.626;23.200;2023-02-04T08:20:57;165719.41;;;2.13;95.97
1776;BME280;885;42.626;23.200;2023-02-04T08:23:25;165697.47;;;2.05;97.72
1776;BME280;885;42.626;23.200;2023-02-04T08:25:54;165660.47;;;1.91;97.87
1776;BME280;885;42.626;23.200;2023-02-04T08:28:20;165661.84;;;1.92;99.34
1776;BME280;885;42.626;23.200;2023-02-04T08:30:47;165713.91;;;2.11;100.00
1776;BME280;885;42.626;23.200;2023-02-04T08:33:14;165671.44;;;1.95;100.00
1776;BME280;885;42.626;23.200;2023-02-04T08:35:41;165659.09;;;1.91;100.00
1776;BME280;885;42.626;23.200;2023-02-04T08:38:08;165692.00;;;2.03;100.00
1776;BME280;885;42.626;23.200;2023-02-04T08:40:35;165618.03;;;1.76;100.00
1776;BME280;885;42.626;23.200;2023-02-04T08:43:03;165649.53;;;1.87;100.00
1776;BME280;885;42.626;23.200;2023-02-04T08:45:30;165642.66;;;1.85;100.00
1776;BME280;885;42.626;23.200;2023-02-04T08:47:57;165663.25;;;1.92;100.00
1776;BME280;885;42.626;23.200;2023-02-04T08:50:23;165656.38;;;1.90;100.00
1776;BME280;885;42.626;23.200;2023-02-04T08:53:23;165633.09;;;1.81;100.00
1776;BME280;885;42.626;23.200;2023-02-04T08:56:13;165664.56;;;1.93;100.00
1776;BME280;885;42.626;23.200;2023-02-04T08:58:45;165741.31;;;2.21;100.00
1776;BME280;885;42.626;23.200;2023-02-04T09:01:12;165798.84;;;2.42;100.00
1776;BME280;885;42.626;23.200;2023-02-04T09:03:39;165671.44;;;1.95;100.00
1776;BME280;885;42.626;23.200;2023-02-04T09:06:06;165648.13;;;1.87;100.00
1776;BME280;885;42.626;23.200;2023-02-04T09:08:41;165656.38;;;1.90;100.00
1776;BME280;885;42.626;23.200;2023-02-04T09:11:10;165650.91;;;1.88;100.00
1776;BME280;885;42.626;23.200;2023-02-04T09:13:36;165682.38;;;1.99;100.00
1776;BME280;885;42.626;23.200;2023-02-04T09:16:05;165748.16;;;2.23;100.00
1776;BME280;885;42.626;23.200;2023-02-04T09:18:32;165722.09;;;2.14;100.00
1776;BME280;885;42.626;23.200;2023-02-04T09:20:59;165716.63;;;2.12;100.00
1776;BME280;885;42.626;23.200;2023-02-04T09:23:26;165697.47;;;2.05;100.00
1776;BME280;885;42.626;23.200;2023-02-04T09:25:53;165749.56;;;2.24;100.00
1776;BME280;885;42.626;23.200;2023-02-04T09:28:20;165776.94;;;2.34;100.00
1776;BME280;885;42.626;23.200;2023-02-04T09:30:47;165829.03;;;2.53;100.00
1776;BME280;885;42.626;23.200;2023-02-04T09:33:15;165768.69;;;2.31;100.00
1776;BME280;885;42.626;23.200;2023-02-04T09:35:42;165728.97;;;2.16;100.00
1776;BME280;885;42.626;23.200;2023-02-04T09:38:09;165650.91;;;1.88;100.00
1776;BME280;885;42.626;23.200;2023-02-04T09:40:41;165642.66;;;1.85;100.00
1776;BME280;885;42.626;23.200;2023-02-04T09:43:13;165612.56;;;1.74;100.00
1776;BME280;885;42.626;23.200;2023-02-04T09:45:42;165650.91;;;1.88;100.00
1776;BME280;885;42.626;23.200;2023-02-04T09:48:11;165642.66;;;1.85;100.00
1776;BME280;885;42.626;23.200;2023-02-04T09:50:41;165698.81;;;2.05;100.00
1776;BME280;885;42.626;23.200;2023-02-04T09:53:12;165739.94;;;2.20;100.00
1776;BME280;885;42.626;23.200;2023-02-04T09:55:43;165774.19;;;2.33;100.00
1776;BME280;885;42.626;23.200;2023-02-04T09:58:12;165782.41;;;2.36;100.00
1776;BME280;885;42.626;23.200;2023-02-04T10:00:40;165733.06;;;2.18;100.00
1776;BME280;885;42.626;23.200;2023-02-04T10:03:13;165598.84;;;1.69;100.00
1776;BME280;885;42.626;23.200;2023-02-04T10:05:43;165583.81;;;1.63;100.00
1776;BME280;885;42.626;23.200;2023-02-04T10:08:13;165590.63;;;1.66;100.00
1776;BME280;885;42.626;23.200;2023-02-04T10:10:41;165678.28;;;1.98;100.00
1776;BME280;885;42.626;23.200;2023-02-04T10:13:12;165708.44;;;2.09;100.00
1776;BME280;885;42.626;23.200;2023-02-04T10:15:39;165693.34;;;2.03;100.00
1776;BME280;885;42.626;23.200;2023-02-04T10:18:07;165760.50;;;2.28;100.00
1776;BME280;885;42.626;23.200;2023-02-04T10:20:38;165776.94;;;2.34;100.00
1776;BME280;885;42.626;23.200;2023-02-04T10:23:09;165702.97;;;2.07;100.00
1776;BME280;885;42.626;23.200;2023-02-04T10:25:37;165656.38;;;1.90;100.00
1776;BME280;885;42.626;23.200;2023-02-04T10:28:04;165639.94;;;1.84;100.00
1776;BME280;885;42.626;23.200;2023-02-04T10:30:38;165718.00;;;2.12;100.00
1776;BME280;885;42.626;23.200;2023-02-04T10:33:21;165705.66;;;2.08;100.00
1776;BME280;885;42.626;23.200;2023-02-04T10:35:50;165760.50;;;2.28;100.00
1776;BME280;885;42.626;23.200;2023-02-04T10:38:19;165779.66;;;2.35;100.00
1776;BME280;885;42.626;23.200;2023-02-04T10:40:46;165800.25;;;2.42;100.00
1776;BME280;885;42.626;23.200;2023-02-04T10:43:14;165826.25;;;2.52;100.00
1776;BME280;885;42.626;23.200;2023-02-04T10:45:44;165771.47;;;2.32;100.00
1776;BME280;885;42.626;23.200;2023-02-04T10:48:16;165704.34;;;2.07;100.00
1776;BME280;885;42.626;23.200;2023-02-04T10:50:44;165750.88;;;2.24;100.00
1776;BME280;885;42.626;23.200;2023-02-04T10:53:13;165804.34;;;2.44;100.00
1776;BME280;885;42.626;23.200;2023-02-04T10:56:00;165827.63;;;2.53;100.00
1776;BME280;885;42.626;23.200;2023-02-04T10:58:29;165798.84;;;2.42;100.00
1776;BME280;885;42.626;23.200;2023-02-04T11:00:56;165772.84;;;2.32;100.00
1776;BME280;885;42.626;23.200;2023-02-04T11:03:25;165711.16;;;2.10;100.00
1776;BME280;885;42.626;23.200;2023-02-04T11:05:56;165742.69;;;2.21;100.00
1776;BME280;885;42.626;23.200;2023-02-04T11:08:24;165797.47;;;2.41;100.00
1776;BME280;885;42.626;23.200;2023-02-04T11:10:55;165778.31;;;2.34;100.00
1776;BME280;885;42.626;23.200;2023-02-04T11:13:25;165837.22;;;2.56;100.00
1776;BME280;885;42.626;23.200;2023-02-04T11:16:09;165767.31;;;2.30;100.00
1776;BME280;885;42.626;23.200;2023-02-04T11:18:46;165738.59;;;2.20;100.00
1776;BME280;885;42.626;23.200;2023-02-04T11:21:20;165656.38;;;1.90;100.00
1776;BME280;885;42.626;23.200;2023-02-04T11:23:47;165678.28;;;1.98;100.00
1776;BME280;885;42.626;23.200;2023-02-04T11:26:16;165638.56;;;1.83;100.00
1776;BME280;885;42.626;23.200;2023-02-04T11:28:49;165685.16;;;2.00;100.00
1776;BME280;885;42.626;23.200;2023-02-04T11:31:40;165713.91;;;2.11;100.00
1776;BME280;885;42.626;23.200;2023-02-04T11:34:26;165723.50;;;2.14;100.00
1776;BME280;885;42.626;23.200;2023-02-04T11:37:18;165727.59;;;2.16;100.00
1776;BME280;885;42.626;23.200;2023-02-04T11:39:57;165759.13;;;2.27;100.00
1776;BME280;885;42.626;23.200;2023-02-04T11:42:29;165822.16;;;2.51;100.00
1776;BME280;885;42.626;23.200;2023-02-04T11:45:00;165867.38;;;2.67;100.00
1776;BME280;885;42.626;23.200;2023-02-04T11:47:34;165827.63;;;2.53;100.00
1776;BME280;885;42.626;23.200;2023-02-04T11:50:04;165690.63;;;2.02;100.00
1776;BME280;885;42.626;23.200;2023-02-04T11:52:37;165675.56;;;1.97;100.00
1776;BME280;885;42.626;23.200;2023-02-04T11:55:04;165701.56;;;2.06;100.00
1776;BME280;885;42.626;23.200;2023-02-04T11:57:39;165772.84;;;2.32;100.00
1776;BME280;885;42.626;23.200;2023-02-04T12:00:13;165815.28;;;2.48;100.00
1776;BME280;885;42.626;23.200;2023-02-04T12:02:43;165792.00;;;2.39;100.00
1776;BME280;885;42.626;23.200;2023-02-04T12:05:13;165718.00;;;2.12;100.00
1776;BME280;885;42.626;23.200;2023-02-04T12:07:40;165702.97;;;2.07;100.00
1776;BME280;885;42.626;23.200;2023-02-04T12:10:13;165720.78;;;2.13;100.00
1776;BME280;885;42.626;23.200;2023-02-04T12:12:42;165692.00;;;2.03;100.00
1776;BME280;885;42.626;23.200;2023-02-04T12:15:16;165701.56;;;2.06;100.00
1776;BME280;885;42.626;23.200;2023-02-04T12:17:44;165741.31;;;2.21;100.00
1776;BME280;885;42.626;23.200;2023-02-04T12:20:12;165708.44;;;2.09;100.00
1776;BME280;885;42.626;23.200;2023-02-04T12:22:39;165678.28;;;1.98;100.00
1776;BME280;885;42.626;23.200;2023-02-04T12:25:07;165689.25;;;2.02;100.00
1776;BME280;885;42.626;23.200;2023-02-04T12:27:34;165760.50;;;2.28;100.00
1776;BME280;885;42.626;23.200;2023-02-04T12:30:10;165829.03;;;2.53;100.00
1776;BME280;885;42.626;23.200;2023-02-04T12:32:39;165745.41;;;2.22;100.00
1776;BME280;885;42.626;23.200;2023-02-04T12:35:06;165693.34;;;2.03;100.00
1776;BME280;885;42.626;23.200;2023-02-04T12:37:33;165656.38;;;1.90;100.00
1776;BME280;885;42.626;23.200;2023-02-04T12:40:19;165661.84;;;1.92;100.00
1776;BME280;885;42.626;23.200;2023-02-04T12:42:46;165738.59;;;2.20;100.00
1776;BME280;885;42.626;23.200;2023-02-04T12:45:14;165661.84;;;1.92;100.00
1776;BME280;885;42.626;23.200;2023-02-04T12:47:43;165661.84;;;1.92;100.00
1776;BME280;885;42.626;23.200;2023-02-04T12:50:12;165663.25;;;1.92;100.00
1776;BME280;885;42.626;23.200;2023-02-04T12:52:39;165629.00;;;1.80;100.00
1776;BME280;885;42.626;23.200;2023-02-04T12:55:07;165635.84;;;1.82;100.00
1776;BME280;885;42.626;23.200;2023-02-04T12:57:36;165634.47;;;1.82;100.00
1776;BME280;885;42.626;23.200;2023-02-04T13:00:04;165657.75;;;1.90;100.00
1776;BME280;885;42.626;23.200;2023-02-04T13:02:31;165704.34;;;2.07;100.00
1776;BME280;885;42.626;23.200;2023-02-04T13:05:00;165623.53;;;1.78;100.00
1776;BME280;885;42.626;23.200;2023-02-04T13:07:26;165687.88;;;2.01;100.00
1776;BME280;885;42.626;23.200;2023-02-04T13:09:53;165701.56;;;2.06;100.00
1776;BME280;885;42.626;23.200;2023-02-04T13:12:21;165726.25;;;2.15;100.00
1776;BME280;885;42.626;23.200;2023-02-04T13:14:48;165726.25;;;2.15;100.00
1776;BME280;885;42.626;23.200;2023-02-04T13:17:15;165686.53;;;2.01;100.00
1776;BME280;885;42.626;23.200;2023-02-04T13:19:42;165698.81;;;2.05;100.00
1776;BME280;885;42.626;23.200;2023-02-04T13:22:10;165689.25;;;2.02;100.00
1776;BME280;885;42.626;23.200;2023-02-04T13:24:37;165659.09;;;1.91;100.00
1776;BME280;885;42.626;23.200;2023-02-04T13:27:04;165675.56;;;1.97;100.00